sensor_id;sensor_type;location;lat;lon;timestamp;P1;durP1;ratioP1;P2;durP2;ratioP2
43182;SDS011;28802;38.578;-0.066;2022-07-01T00:02:23;15.23;;;5.07;;
43182;SDS011;28802;38.578;-0.066;2022-07-01T00:04:50;8.93;;;4.43;;
43182;SDS011;28802;38.578;-0.066;2022-07-01T00:07:34;12.90;;;5.10;;
43182;SDS011;28802;38.578;-0.066;2022-07-01T00:10:00;10.63;;;4.80;;
43182;SDS011;28802;38.578;-0.066;2022-07-01T00:12:26;8.93;;;4.77;;
43182;SDS011;28802;38.578;-0.066;2022-07-01T00:14:52;13.47;;;4.53;;
43182;SDS011;28802;38.578;-0.066;2022-07-01T00:17:18;8.30;;;4.60;;
43182;SDS011;28802;38.578;-0.066;2022-07-01T00:19:44;14.07;;;5.70;;
43182;SDS011;28802;38.578;-0.066;2022-07-01T00:22:10;13.10;;;5.60;;
43182;SDS011;28802;38.578;-0.066;2022-07-01T00:24:36;8.20;;;4.37;;
43182;SDS011;28802;38.578;-0.066;2022-07-01T00:27:02;11.33;;;4.40;;
43182;SDS011;28802;38.578;-0.066;2022-07-01T00:29:29;11.33;;;4.80;;
43182;SDS011;28802;38.578;-0.066;2022-07-01T00:31:55;8.90;;;4.37;;
43182;SDS011;28802;38.578;-0.066;2022-07-01T00:34:21;14.20;;;4.97;;
43182;SDS011;28802;38.578;-0.066;2022-07-01T00:36:47;10.03;;;5.03;;
43182;SDS011;28802;38.578;-0.066;2022-07-01T00:39:13;10.80;;;5.63;;
43182;SDS011;28802;38.578;-0.066;2022-07-01T00:41:38;13.73;;;5.30;;
43182;SDS011;28802;38.578;-0.066;2022-07-01T00:44:04;12.83;;;5.10;;
43182;SDS011;28802;38.578;-0.066;2022-07-01T00:46:31;9.10;;;4.37;;
43182;SDS011;28802;38.578;-0.066;2022-07-01T00:48:58;6.87;;;5.13;;
43182;SDS011;28802;38.578;-0.066;2022-07-01T00:51:25;7.43;;;4.67;;
43182;SDS011;28802;38.578;-0.066;2022-07-01T00:53:51;8.30;;;5.10;;
43182;SDS011;28802;38.578;-0.066;2022-07-01T00:56:18;11.80;;;5.93;;
43182;SDS011;28802;38.578;-0.066;2022-07-01T00:58:45;18.07;;;5.97;;
43182;SDS011;28802;38.578;-0.066;2022-07-01T01:01:11;14.57;;;4.77;;
43182;SDS011;28802;38.578;-0.066;2022-07-01T01:03:37;18.47;;;6.43;;
43182;SDS011;28802;38.578;-0.066;2022-07-01T01:06:03;12.17;;;5.70;;
43182;SDS011;28802;38.578;-0.066;2022-07-01T01:08:29;18.83;;;5.73;;
43182;SDS011;28802;38.578;-0.066;2022-07-01T01:10:56;15.07;;;6.10;;
43182;SDS011;28802;38.578;-0.066;2022-07-01T01:13:22;15.30;;;5.77;;
43182;SDS011;28802;38.578;-0.066;2022-07-01T01:15:48;9.50;;;5.33;;
43182;SDS011;28802;38.578;-0.066;2022-07-01T01:18:14;14.10;;;5.63;;
43182;SDS011;28802;38.578;-0.066;2022-07-01T01:20:40;9.17;;;5.27;;
43182;SDS011;28802;38.578;-0.066;2022-07-01T01:23:06;11.87;;;5.40;;
43182;SDS011;28802;38.578;-0.066;2022-07-01T01:25:32;17.87;;;6.10;;
43182;SDS011;28802;38.578;-0.066;2022-07-01T01:27:58;13.43;;;5.60;;
43182;SDS011;28802;38.578;-0.066;2022-07-01T01:30:25;14.17;;;6.13;;
43182;SDS011;28802;38.578;-0.066;2022-07-01T01:32:51;18.00;;;5.97;;
43182;SDS011;28802;38.578;-0.066;2022-07-01T01:35:18;6.80;;;4.60;;
43182;SDS011;28802;38.578;-0.066;2022-07-01T01:37:44;11.57;;;5.60;;
43182;SDS011;28802;38.578;-0.066;2022-07-01T01:40:11;11.33;;;4.70;;
43182;SDS011;28802;38.578;-0.066;2022-07-01T01:42:39;6.90;;;4.90;;
43182;SDS011;28802;38.578;-0.066;2022-07-01T01:45:06;9.57;;;5.43;;
43182;SDS011;28802;38.578;-0.066;2022-07-01T01:47:32;8.93;;;5.90;;
43182;SDS011;28802;38.578;-0.066;2022-07-01T01:49:58;12.03;;;5.63;;
43182;SDS011;28802;38.578;-0.066;2022-07-01T01:52:24;15.20;;;5.40;;
43182;SDS011;28802;38.578;-0.066;2022-07-01T01:54:50;10.87;;;4.30;;
43182;SDS011;28802;38.578;-0.066;2022-07-01T01:57:16;15.33;;;5.53;;
43182;SDS011;28802;38.578;-0.066;2022-07-01T01:59:42;16.47;;;5.70;;
43182;SDS011;28802;38.578;-0.066;2022-07-01T02:02:08;14.50;;;4.50;;
43182;SDS011;28802;38.578;-0.066;2022-07-01T02:04:34;9.83;;;4.40;;
43182;SDS011;28802;38.578;-0.066;2022-07-01T02:07:00;15.10;;;4.87;;
43182;SDS011;28802;38.578;-0.066;2022-07-01T02:09:26;17.80;;;4.90;;
43182;SDS011;28802;38.578;-0.066;2022-07-01T02:11:53;6.77;;;4.17;;
43182;SDS011;28802;38.578;-0.066;2022-07-01T02:14:19;9.53;;;4.77;;
43182;SDS011;28802;38.578;-0.066;2022-07-01T02:16:45;13.93;;;5.30;;
43182;SDS011;28802;38.578;-0.066;2022-07-01T02:19:11;19.77;;;4.83;;
43182;SDS011;28802;38.578;-0.066;2022-07-01T02:21:37;11.87;;;4.63;;
43182;SDS011;28802;38.578;-0.066;2022-07-01T02:24:02;15.83;;;5.70;;
43182;SDS011;28802;38.578;-0.066;2022-07-01T02:26:28;10.27;;;4.63;;
43182;SDS011;28802;38.578;-0.066;2022-07-01T02:28:55;14.60;;;5.47;;
43182;SDS011;28802;38.578;-0.066;2022-07-01T02:31:21;6.60;;;3.77;;
43182;SDS011;28802;38.578;-0.066;2022-07-01T02:33:47;15.63;;;5.27;;
43182;SDS011;28802;38.578;-0.066;2022-07-01T02:36:13;9.83;;;4.60;;
43182;SDS011;28802;38.578;-0.066;2022-07-01T02:38:39;8.40;;;4.73;;
43182;SDS011;28802;38.578;-0.066;2022-07-01T02:41:05;11.60;;;4.67;;
43182;SDS011;28802;38.578;-0.066;2022-07-01T02:43:31;7.30;;;3.60;;
43182;SDS011;28802;38.578;-0.066;2022-07-01T02:45:57;9.83;;;4.13;;
43182;SDS011;28802;38.578;-0.066;2022-07-01T02:48:23;10.70;;;4.07;;
43182;SDS011;28802;38.578;-0.066;2022-07-01T02:50:49;9.23;;;4.30;;
43182;SDS011;28802;38.578;-0.066;2022-07-01T02:53:15;9.60;;;4.10;;
43182;SDS011;28802;38.578;-0.066;2022-07-01T02:55:41;7.47;;;3.93;;
43182;SDS011;28802;38.578;-0.066;2022-07-01T02:58:07;8.50;;;4.10;;
43182;SDS011;28802;38.578;-0.066;2022-07-01T03:00:33;10.00;;;5.30;;
43182;SDS011;28802;38.578;-0.066;2022-07-01T03:02:59;10.57;;;4.10;;
43182;SDS011;28802;38.578;-0.066;2022-07-01T03:05:25;11.37;;;4.83;;
43182;SDS011;28802;38.578;-0.066;2022-07-01T03:07:51;13.27;;;4.80;;
43182;SDS011;28802;38.578;-0.066;2022-07-01T03:10:16;17.77;;;5.77;;
43182;SDS011;28802;38.578;-0.066;2022-07-01T03:12:42;13.47;;;5.10;;
43182;SDS011;28802;38.578;-0.066;2022-07-01T03:15:12;8.23;;;5.13;;
43182;SDS011;28802;38.578;-0.066;2022-07-01T03:17:40;6.40;;;4.00;;
43182;SDS011;28802;38.578;-0.066;2022-07-01T03:20:11;11.93;;;5.00;;
43182;SDS011;28802;38.578;-0.066;2022-07-01T03:22:39;6.90;;;4.77;;
43182;SDS011;28802;38.578;-0.066;2022-07-01T03:25:06;10.00;;;4.37;;
43182;SDS011;28802;38.578;-0.066;2022-07-01T03:27:32;11.90;;;5.70;;
43182;SDS011;28802;38.578;-0.066;2022-07-01T03:30:00;9.10;;;4.77;;
43182;SDS011;28802;38.578;-0.066;2022-07-01T03:32:26;14.70;;;6.13;;
43182;SDS011;28802;38.578;-0.066;2022-07-01T03:34:52;8.90;;;4.37;;
43182;SDS011;28802;38.578;-0.066;2022-07-01T03:37:19;10.70;;;5.17;;
43182;SDS011;28802;38.578;-0.066;2022-07-01T03:39:46;8.90;;;5.10;;
43182;SDS011;28802;38.578;-0.066;2022-07-01T03:42:12;8.63;;;4.63;;
43182;SDS011;28802;38.578;-0.066;2022-07-01T03:44:38;10.80;;;5.50;;
43182;SDS011;28802;38.578;-0.066;2022-07-01T03:47:04;12.70;;;5.60;;
43182;SDS011;28802;38.578;-0.066;2022-07-01T03:49:34;14.60;;;5.67;;
43182;SDS011;28802;38.578;-0.066;2022-07-01T03:52:03;12.30;;;4.87;;
43182;SDS011;28802;38.578;-0.066;2022-07-01T03:54:30;8.40;;;4.70;;
43182;SDS011;28802;38.578;-0.066;2022-07-01T03:57:00;11.03;;;5.10;;
43182;SDS011;28802;38.578;-0.066;2022-07-01T03:59:27;11.93;;;4.73;;
43182;SDS011;28802;38.578;-0.066;2022-07-01T04:01:55;7.70;;;4.90;;
43182;SDS011;28802;38.578;-0.066;2022-07-01T04:04:22;9.53;;;5.10;;
43182;SDS011;28802;38.578;-0.066;2022-07-01T04:06:49;10.10;;;5.13;;
43182;SDS011;28802;38.578;-0.066;2022-07-01T04:09:16;9.90;;;5.20;;
43182;SDS011;28802;38.578;-0.066;2022-07-01T04:11:43;8.97;;;4.80;;
43182;SDS011;28802;38.578;-0.066;2022-07-01T04:14:10;11.10;;;5.30;;
43182;SDS011;28802;38.578;-0.066;2022-07-01T04:16:37;8.93;;;4.50;;
43182;SDS011;28802;38.578;-0.066;2022-07-01T04:19:03;13.53;;;4.93;;
43182;SDS011;28802;38.578;-0.066;2022-07-01T04:21:29;12.10;;;4.80;;
43182;SDS011;28802;38.578;-0.066;2022-07-01T04:24:14;10.97;;;5.00;;
43182;SDS011;28802;38.578;-0.066;2022-07-01T04:26:40;10.23;;;5.23;;
43182;SDS011;28802;38.578;-0.066;2022-07-01T04:29:07;10.33;;;4.50;;
43182;SDS011;28802;38.578;-0.066;2022-07-01T04:31:34;15.50;;;6.27;;
43182;SDS011;28802;38.578;-0.066;2022-07-01T04:34:04;12.47;;;5.77;;
43182;SDS011;28802;38.578;-0.066;2022-07-01T04:36:30;11.40;;;5.60;;
43182;SDS011;28802;38.578;-0.066;2022-07-01T04:38:57;9.00;;;5.37;;
43182;SDS011;28802;38.578;-0.066;2022-07-01T04:41:23;12.70;;;4.97;;
43182;SDS011;28802;38.578;-0.066;2022-07-01T04:44:07;12.50;;;4.60;;
43182;SDS011;28802;38.578;-0.066;2022-07-01T04:46:33;5.87;;;4.23;;
43182;SDS011;28802;38.578;-0.066;2022-07-01T04:49:00;12.10;;;4.93;;
43182;SDS011;28802;38.578;-0.066;2022-07-01T04:51:25;11.90;;;4.60;;
43182;SDS011;28802;38.578;-0.066;2022-07-01T04:53:51;14.77;;;5.23;;
43182;SDS011;28802;38.578;-0.066;2022-07-01T04:56:18;17.63;;;5.37;;
43182;SDS011;28802;38.578;-0.066;2022-07-01T04:58:44;9.63;;;4.60;;
43182;SDS011;28802;38.578;-0.066;2022-07-01T05:01:10;13.33;;;5.40;;
43182;SDS011;28802;38.578;-0.066;2022-07-01T05:03:36;12.43;;;5.07;;
43182;SDS011;28802;38.578;-0.066;2022-07-01T05:06:02;14.17;;;5.70;;
43182;SDS011;28802;38.578;-0.066;2022-07-01T05:08:28;13.23;;;6.27;;
43182;SDS011;28802;38.578;-0.066;2022-07-01T05:10:54;10.80;;;5.90;;
43182;SDS011;28802;38.578;-0.066;2022-07-01T05:13:20;9.37;;;5.53;;
43182;SDS011;28802;38.578;-0.066;2022-07-01T05:15:46;4.97;;;3.80;;
43182;SDS011;28802;38.578;-0.066;2022-07-01T05:18:11;9.93;;;4.73;;
43182;SDS011;28802;38.578;-0.066;2022-07-01T05:20:56;12.00;;;4.50;;
43182;SDS011;28802;38.578;-0.066;2022-07-01T05:23:40;12.60;;;4.57;;
43182;SDS011;28802;38.578;-0.066;2022-07-01T05:26:06;9.83;;;5.40;;
43182;SDS011;28802;38.578;-0.066;2022-07-01T05:28:32;9.20;;;4.60;;
43182;SDS011;28802;38.578;-0.066;2022-07-01T05:30:58;10.00;;;5.33;;
43182;SDS011;28802;38.578;-0.066;2022-07-01T05:33:24;17.13;;;5.63;;
43182;SDS011;28802;38.578;-0.066;2022-07-01T05:35:53;17.10;;;5.23;;
43182;SDS011;28802;38.578;-0.066;2022-07-01T05:38:19;11.80;;;4.13;;
43182;SDS011;28802;38.578;-0.066;2022-07-01T05:40:45;9.00;;;4.13;;
43182;SDS011;28802;38.578;-0.066;2022-07-01T05:43:11;7.10;;;4.57;;
43182;SDS011;28802;38.578;-0.066;2022-07-01T05:45:37;10.90;;;3.57;;
43182;SDS011;28802;38.578;-0.066;2022-07-01T05:48:03;13.57;;;4.50;;
43182;SDS011;28802;38.578;-0.066;2022-07-01T05:50:30;14.40;;;4.03;;
43182;SDS011;28802;38.578;-0.066;2022-07-01T05:52:56;9.80;;;3.93;;
43182;SDS011;28802;38.578;-0.066;2022-07-01T05:55:21;14.00;;;4.10;;
43182;SDS011;28802;38.578;-0.066;2022-07-01T05:57:47;10.20;;;4.13;;
43182;SDS011;28802;38.578;-0.066;2022-07-01T06:00:13;13.50;;;5.30;;
43182;SDS011;28802;38.578;-0.066;2022-07-01T06:02:39;4.77;;;2.07;;
43182;SDS011;28802;38.578;-0.066;2022-07-01T06:05:05;5.43;;;1.93;;
43182;SDS011;28802;38.578;-0.066;2022-07-01T06:07:31;7.53;;;2.47;;
43182;SDS011;28802;38.578;-0.066;2022-07-01T06:09:57;4.13;;;2.00;;
43182;SDS011;28802;38.578;-0.066;2022-07-01T06:12:23;5.67;;;2.10;;
43182;SDS011;28802;38.578;-0.066;2022-07-01T06:14:49;5.13;;;2.00;;
43182;SDS011;28802;38.578;-0.066;2022-07-01T06:17:15;9.47;;;2.37;;
43182;SDS011;28802;38.578;-0.066;2022-07-01T06:19:42;8.07;;;1.73;;
43182;SDS011;28802;38.578;-0.066;2022-07-01T06:22:08;9.10;;;2.90;;
43182;SDS011;28802;38.578;-0.066;2022-07-01T06:24:34;6.47;;;2.00;;
43182;SDS011;28802;38.578;-0.066;2022-07-01T06:27:00;9.23;;;2.20;;
43182;SDS011;28802;38.578;-0.066;2022-07-01T06:29:26;7.30;;;1.63;;
43182;SDS011;28802;38.578;-0.066;2022-07-01T06:31:56;7.93;;;1.93;;
43182;SDS011;28802;38.578;-0.066;2022-07-01T06:34:22;13.93;;;2.23;;
43182;SDS011;28802;38.578;-0.066;2022-07-01T06:36:47;13.60;;;2.30;;
43182;SDS011;28802;38.578;-0.066;2022-07-01T06:39:13;11.40;;;1.53;;
43182;SDS011;28802;38.578;-0.066;2022-07-01T06:41:39;7.77;;;1.60;;
43182;SDS011;28802;38.578;-0.066;2022-07-01T06:44:05;7.10;;;1.43;;
43182;SDS011;28802;38.578;-0.066;2022-07-01T06:46:31;10.63;;;1.40;;
43182;SDS011;28802;38.578;-0.066;2022-07-01T06:48:57;6.90;;;1.53;;
43182;SDS011;28802;38.578;-0.066;2022-07-01T06:51:24;7.20;;;1.13;;
43182;SDS011;28802;38.578;-0.066;2022-07-01T06:53:50;7.53;;;1.43;;
43182;SDS011;28802;38.578;-0.066;2022-07-01T06:56:17;2.97;;;1.30;;
43182;SDS011;28802;38.578;-0.066;2022-07-01T06:58:43;5.87;;;1.23;;
43182;SDS011;28802;38.578;-0.066;2022-07-01T07:01:09;7.00;;;1.07;;
43182;SDS011;28802;38.578;-0.066;2022-07-01T07:03:36;4.57;;;1.47;;
43182;SDS011;28802;38.578;-0.066;2022-07-01T07:06:02;9.13;;;1.73;;
43182;SDS011;28802;38.578;-0.066;2022-07-01T07:08:31;4.30;;;1.60;;
43182;SDS011;28802;38.578;-0.066;2022-07-01T07:10:57;7.53;;;1.50;;
43182;SDS011;28802;38.578;-0.066;2022-07-01T07:13:24;15.30;;;1.70;;
43182;SDS011;28802;38.578;-0.066;2022-07-01T07:15:50;9.13;;;1.93;;
43182;SDS011;28802;38.578;-0.066;2022-07-01T07:18:16;12.23;;;1.93;;
43182;SDS011;28802;38.578;-0.066;2022-07-01T07:20:42;5.03;;;1.37;;
43182;SDS011;28802;38.578;-0.066;2022-07-01T07:23:08;6.20;;;1.40;;
43182;SDS011;28802;38.578;-0.066;2022-07-01T07:25:34;11.30;;;2.10;;
43182;SDS011;28802;38.578;-0.066;2022-07-01T07:28:00;6.93;;;1.43;;
43182;SDS011;28802;38.578;-0.066;2022-07-01T07:30:26;15.50;;;2.40;;
43182;SDS011;28802;38.578;-0.066;2022-07-01T07:32:52;6.03;;;1.47;;
43182;SDS011;28802;38.578;-0.066;2022-07-01T07:35:18;9.50;;;1.70;;
43182;SDS011;28802;38.578;-0.066;2022-07-01T07:37:44;11.70;;;2.13;;
43182;SDS011;28802;38.578;-0.066;2022-07-01T07:40:10;13.47;;;3.23;;
43182;SDS011;28802;38.578;-0.066;2022-07-01T07:42:37;6.23;;;1.07;;
43182;SDS011;28802;38.578;-0.066;2022-07-01T07:45:05;7.93;;;1.63;;
43182;SDS011;28802;38.578;-0.066;2022-07-01T07:47:33;8.70;;;1.23;;
43182;SDS011;28802;38.578;-0.066;2022-07-01T07:49:59;11.73;;;1.93;;
43182;SDS011;28802;38.578;-0.066;2022-07-01T07:52:26;9.23;;;1.00;;
43182;SDS011;28802;38.578;-0.066;2022-07-01T07:54:51;12.40;;;1.30;;
43182;SDS011;28802;38.578;-0.066;2022-07-01T07:57:18;10.17;;;1.80;;
43182;SDS011;28802;38.578;-0.066;2022-07-01T07:59:44;4.90;;;1.17;;
43182;SDS011;28802;38.578;-0.066;2022-07-01T08:02:10;7.03;;;1.03;;
43182;SDS011;28802;38.578;-0.066;2022-07-01T08:04:36;5.30;;;1.00;;
43182;SDS011;28802;38.578;-0.066;2022-07-01T08:07:02;8.07;;;1.63;;
43182;SDS011;28802;38.578;-0.066;2022-07-01T08:09:28;3.80;;;1.00;;
43182;SDS011;28802;38.578;-0.066;2022-07-01T08:11:54;14.10;;;1.30;;
43182;SDS011;28802;38.578;-0.066;2022-07-01T08:14:20;7.13;;;1.10;;
43182;SDS011;28802;38.578;-0.066;2022-07-01T08:16:46;7.07;;;1.00;;
43182;SDS011;28802;38.578;-0.066;2022-07-01T08:19:12;9.77;;;1.43;;
43182;SDS011;28802;38.578;-0.066;2022-07-01T08:21:38;9.80;;;1.40;;
43182;SDS011;28802;38.578;-0.066;2022-07-01T08:24:04;3.27;;;0.90;;
43182;SDS011;28802;38.578;-0.066;2022-07-01T08:26:30;6.53;;;1.70;;
43182;SDS011;28802;38.578;-0.066;2022-07-01T08:28:56;3.90;;;1.03;;
43182;SDS011;28802;38.578;-0.066;2022-07-01T08:31:21;6.57;;;1.37;;
43182;SDS011;28802;38.578;-0.066;2022-07-01T08:33:47;7.27;;;1.40;;
43182;SDS011;28802;38.578;-0.066;2022-07-01T08:36:13;8.63;;;1.33;;
43182;SDS011;28802;38.578;-0.066;2022-07-01T08:38:40;7.70;;;1.97;;
43182;SDS011;28802;38.578;-0.066;2022-07-01T08:41:06;5.53;;;1.00;;
43182;SDS011;28802;38.578;-0.066;2022-07-01T08:43:33;4.70;;;0.80;;
43182;SDS011;28802;38.578;-0.066;2022-07-01T08:46:00;6.83;;;1.53;;
43182;SDS011;28802;38.578;-0.066;2022-07-01T08:48:27;8.60;;;1.53;;
43182;SDS011;28802;38.578;-0.066;2022-07-01T08:50:54;4.57;;;0.90;;
43182;SDS011;28802;38.578;-0.066;2022-07-01T08:53:20;6.30;;;1.37;;
43182;SDS011;28802;38.578;-0.066;2022-07-01T08:55:46;7.30;;;1.40;;
43182;SDS011;28802;38.578;-0.066;2022-07-01T08:58:31;10.90;;;2.87;;
43182;SDS011;28802;38.578;-0.066;2022-07-01T09:03:46;5.57;;;1.00;;
43182;SDS011;28802;38.578;-0.066;2022-07-01T09:06:15;6.13;;;1.27;;
43182;SDS011;28802;38.578;-0.066;2022-07-01T09:08:46;7.27;;;1.13;;
43182;SDS011;28802;38.578;-0.066;2022-07-01T09:11:16;8.47;;;1.60;;
43182;SDS011;28802;38.578;-0.066;2022-07-01T09:13:44;11.60;;;1.40;;
43182;SDS011;28802;38.578;-0.066;2022-07-01T09:16:11;14.43;;;1.83;;
43182;SDS011;28802;38.578;-0.066;2022-07-01T09:18:38;6.17;;;1.40;;
43182;SDS011;28802;38.578;-0.066;2022-07-01T09:21:08;9.20;;;1.40;;
43182;SDS011;28802;38.578;-0.066;2022-07-01T09:23:38;7.10;;;1.53;;
43182;SDS011;28802;38.578;-0.066;2022-07-01T09:26:05;12.63;;;1.60;;
43182;SDS011;28802;38.578;-0.066;2022-07-01T09:28:31;11.60;;;1.60;;
43182;SDS011;28802;38.578;-0.066;2022-07-01T09:30:57;13.20;;;1.40;;
43182;SDS011;28802;38.578;-0.066;2022-07-01T09:33:25;10.60;;;1.63;;
43182;SDS011;28802;38.578;-0.066;2022-07-01T09:35:52;10.93;;;1.70;;
43182;SDS011;28802;38.578;-0.066;2022-07-01T09:38:21;9.43;;;2.10;;
43182;SDS011;28802;38.578;-0.066;2022-07-01T09:40:55;9.03;;;1.63;;
43182;SDS011;28802;38.578;-0.066;2022-07-01T09:43:26;8.90;;;1.23;;
43182;SDS011;28802;38.578;-0.066;2022-07-01T09:50:59;15.00;;;1.60;;
43182;SDS011;28802;38.578;-0.066;2022-07-01T09:53:26;10.67;;;2.13;;
43182;SDS011;28802;38.578;-0.066;2022-07-01T09:55:52;13.90;;;1.53;;
43182;SDS011;28802;38.578;-0.066;2022-07-01T09:58:18;5.13;;;1.30;;
43182;SDS011;28802;38.578;-0.066;2022-07-01T10:00:44;7.97;;;2.00;;
43182;SDS011;28802;38.578;-0.066;2022-07-01T10:03:11;16.67;;;2.60;;
43182;SDS011;28802;38.578;-0.066;2022-07-01T10:05:48;10.97;;;1.70;;
43182;SDS011;28802;38.578;-0.066;2022-07-01T10:14:03;7.23;;;1.47;;
43182;SDS011;28802;38.578;-0.066;2022-07-01T10:16:30;7.23;;;1.83;;
43182;SDS011;28802;38.578;-0.066;2022-07-01T10:18:58;7.03;;;1.57;;
43182;SDS011;28802;38.578;-0.066;2022-07-01T10:21:27;12.50;;;2.63;;
43182;SDS011;28802;38.578;-0.066;2022-07-01T10:24:14;8.83;;;1.83;;
43182;SDS011;28802;38.578;-0.066;2022-07-01T10:26:41;9.33;;;1.87;;
43182;SDS011;28802;38.578;-0.066;2022-07-01T10:29:53;9.77;;;1.77;;
43182;SDS011;28802;38.578;-0.066;2022-07-01T10:32:29;14.37;;;2.60;;
43182;SDS011;28802;38.578;-0.066;2022-07-01T10:34:48;11.33;;;1.90;;
43182;SDS011;28802;38.578;-0.066;2022-07-01T10:37:16;11.23;;;2.07;;
43182;SDS011;28802;38.578;-0.066;2022-07-01T10:39:58;12.93;;;1.90;;
43182;SDS011;28802;38.578;-0.066;2022-07-01T10:42:35;5.77;;;1.77;;
43182;SDS011;28802;38.578;-0.066;2022-07-01T10:45:23;8.33;;;1.67;;
43182;SDS011;28802;38.578;-0.066;2022-07-01T10:47:49;13.70;;;1.93;;
43182;SDS011;28802;38.578;-0.066;2022-07-01T10:50:46;9.90;;;1.70;;
43182;SDS011;28802;38.578;-0.066;2022-07-01T10:53:15;8.93;;;2.03;;
43182;SDS011;28802;38.578;-0.066;2022-07-01T10:55:47;8.73;;;2.03;;
43182;SDS011;28802;38.578;-0.066;2022-07-01T10:58:15;11.00;;;1.50;;
43182;SDS011;28802;38.578;-0.066;2022-07-01T11:00:48;7.83;;;1.90;;
43182;SDS011;28802;38.578;-0.066;2022-07-01T11:03:20;6.13;;;1.50;;
43182;SDS011;28802;38.578;-0.066;2022-07-01T11:05:48;8.43;;;1.40;;
43182;SDS011;28802;38.578;-0.066;2022-07-01T11:08:17;7.97;;;1.73;;
43182;SDS011;28802;38.578;-0.066;2022-07-01T11:10:43;19.23;;;2.60;;
43182;SDS011;28802;38.578;-0.066;2022-07-01T11:13:12;9.30;;;1.97;;
43182;SDS011;28802;38.578;-0.066;2022-07-01T11:15:44;9.47;;;1.70;;
43182;SDS011;28802;38.578;-0.066;2022-07-01T11:18:11;8.40;;;1.57;;
43182;SDS011;28802;38.578;-0.066;2022-07-01T11:20:39;7.97;;;2.23;;
43182;SDS011;28802;38.578;-0.066;2022-07-01T11:23:05;14.70;;;2.50;;
43182;SDS011;28802;38.578;-0.066;2022-07-01T11:25:31;9.90;;;1.83;;
43182;SDS011;28802;38.578;-0.066;2022-07-01T11:27:57;7.83;;;1.53;;
43182;SDS011;28802;38.578;-0.066;2022-07-01T11:30:23;14.13;;;1.87;;
43182;SDS011;28802;38.578;-0.066;2022-07-01T11:32:51;11.13;;;1.80;;
43182;SDS011;28802;38.578;-0.066;2022-07-01T11:35:27;12.30;;;2.50;;
43182;SDS011;28802;38.578;-0.066;2022-07-01T11:38:14;10.77;;;1.57;;
43182;SDS011;28802;38.578;-0.066;2022-07-01T11:41:07;8.27;;;2.37;;
43182;SDS011;28802;38.578;-0.066;2022-07-01T11:43:42;8.70;;;1.70;;
43182;SDS011;28802;38.578;-0.066;2022-07-01T11:46:08;11.53;;;1.87;;
43182;SDS011;28802;38.578;-0.066;2022-07-01T11:48:38;8.93;;;1.90;;
43182;SDS011;28802;38.578;-0.066;2022-07-01T11:51:16;9.93;;;2.43;;
43182;SDS011;28802;38.578;-0.066;2022-07-01T11:53:45;7.77;;;2.20;;
43182;SDS011;28802;38.578;-0.066;2022-07-01T11:56:17;9.33;;;1.73;;
43182;SDS011;28802;38.578;-0.066;2022-07-01T11:58:53;11.97;;;2.57;;
43182;SDS011;28802;38.578;-0.066;2022-07-01T12:01:30;18.17;;;2.53;;
43182;SDS011;28802;38.578;-0.066;2022-07-01T12:04:00;22.57;;;2.63;;
43182;SDS011;28802;38.578;-0.066;2022-07-01T12:06:28;13.93;;;2.63;;
43182;SDS011;28802;38.578;-0.066;2022-07-01T12:08:56;10.80;;;2.27;;
43182;SDS011;28802;38.578;-0.066;2022-07-01T12:11:22;15.87;;;2.60;;
43182;SDS011;28802;38.578;-0.066;2022-07-01T12:13:50;10.80;;;2.20;;
43182;SDS011;28802;38.578;-0.066;2022-07-01T12:16:17;11.73;;;2.50;;
43182;SDS011;28802;38.578;-0.066;2022-07-01T12:18:53;12.60;;;3.17;;
43182;SDS011;28802;38.578;-0.066;2022-07-01T12:21:28;20.63;;;3.17;;
43182;SDS011;28802;38.578;-0.066;2022-07-01T12:24:08;13.77;;;2.87;;
43182;SDS011;28802;38.578;-0.066;2022-07-01T12:26:45;16.57;;;3.00;;
43182;SDS011;28802;38.578;-0.066;2022-07-01T12:32:19;26.37;;;4.40;;
43182;SDS011;28802;38.578;-0.066;2022-07-01T12:34:49;15.20;;;3.20;;
43182;SDS011;28802;38.578;-0.066;2022-07-01T12:37:48;17.93;;;5.43;;
43182;SDS011;28802;38.578;-0.066;2022-07-01T12:40:19;21.70;;;5.07;;
43182;SDS011;28802;38.578;-0.066;2022-07-01T12:42:46;16.77;;;4.27;;
43182;SDS011;28802;38.578;-0.066;2022-07-01T12:45:13;15.57;;;2.63;;
43182;SDS011;28802;38.578;-0.066;2022-07-01T12:47:42;16.13;;;3.63;;
43182;SDS011;28802;38.578;-0.066;2022-07-01T12:52:42;17.23;;;3.33;;
43182;SDS011;28802;38.578;-0.066;2022-07-01T12:55:21;16.40;;;3.90;;
43182;SDS011;28802;38.578;-0.066;2022-07-01T12:57:48;14.80;;;3.07;;
43182;SDS011;28802;38.578;-0.066;2022-07-01T13:00:17;16.77;;;2.83;;
43182;SDS011;28802;38.578;-0.066;2022-07-01T13:02:44;13.60;;;2.90;;
43182;SDS011;28802;38.578;-0.066;2022-07-01T13:05:10;12.73;;;3.03;;
43182;SDS011;28802;38.578;-0.066;2022-07-01T13:07:37;16.03;;;4.10;;
43182;SDS011;28802;38.578;-0.066;2022-07-01T13:10:03;17.43;;;3.00;;
43182;SDS011;28802;38.578;-0.066;2022-07-01T13:12:30;18.30;;;3.53;;
43182;SDS011;28802;38.578;-0.066;2022-07-01T13:14:56;13.07;;;3.07;;
43182;SDS011;28802;38.578;-0.066;2022-07-01T13:17:23;11.30;;;2.53;;
43182;SDS011;28802;38.578;-0.066;2022-07-01T13:19:49;10.30;;;2.57;;
43182;SDS011;28802;38.578;-0.066;2022-07-01T13:22:15;15.90;;;2.90;;
43182;SDS011;28802;38.578;-0.066;2022-07-01T13:24:41;21.33;;;3.20;;
43182;SDS011;28802;38.578;-0.066;2022-07-01T13:27:07;15.57;;;3.00;;
43182;SDS011;28802;38.578;-0.066;2022-07-01T13:29:33;10.73;;;2.97;;
43182;SDS011;28802;38.578;-0.066;2022-07-01T13:31:59;15.93;;;4.17;;
43182;SDS011;28802;38.578;-0.066;2022-07-01T13:34:25;17.47;;;3.03;;
43182;SDS011;28802;38.578;-0.066;2022-07-01T13:36:51;15.27;;;3.40;;
43182;SDS011;28802;38.578;-0.066;2022-07-01T13:39:17;12.63;;;3.40;;
43182;SDS011;28802;38.578;-0.066;2022-07-01T13:41:43;23.90;;;3.53;;
43182;SDS011;28802;38.578;-0.066;2022-07-01T13:44:09;21.07;;;5.57;;
43182;SDS011;28802;38.578;-0.066;2022-07-01T13:46:37;16.90;;;3.00;;
43182;SDS011;28802;38.578;-0.066;2022-07-01T13:49:04;26.43;;;3.00;;
43182;SDS011;28802;38.578;-0.066;2022-07-01T13:51:30;16.50;;;4.10;;
43182;SDS011;28802;38.578;-0.066;2022-07-01T13:53:56;15.60;;;3.27;;
43182;SDS011;28802;38.578;-0.066;2022-07-01T13:56:25;8.83;;;2.37;;
43182;SDS011;28802;38.578;-0.066;2022-07-01T13:58:52;14.67;;;3.10;;
43182;SDS011;28802;38.578;-0.066;2022-07-01T14:01:19;11.13;;;2.93;;
43182;SDS011;28802;38.578;-0.066;2022-07-01T14:03:48;23.50;;;3.40;;
43182;SDS011;28802;38.578;-0.066;2022-07-01T14:06:15;12.13;;;2.20;;
43182;SDS011;28802;38.578;-0.066;2022-07-01T14:08:41;9.33;;;2.73;;
43182;SDS011;28802;38.578;-0.066;2022-07-01T14:11:07;14.57;;;2.73;;
43182;SDS011;28802;38.578;-0.066;2022-07-01T14:13:33;13.20;;;3.13;;
43182;SDS011;28802;38.578;-0.066;2022-07-01T14:16:02;12.57;;;3.07;;
43182;SDS011;28802;38.578;-0.066;2022-07-01T14:18:34;7.20;;;2.57;;
43182;SDS011;28802;38.578;-0.066;2022-07-01T14:21:02;13.70;;;2.40;;
43182;SDS011;28802;38.578;-0.066;2022-07-01T14:23:29;15.07;;;3.17;;
43182;SDS011;28802;38.578;-0.066;2022-07-01T14:25:58;11.20;;;3.20;;
43182;SDS011;28802;38.578;-0.066;2022-07-01T14:28:24;18.60;;;3.73;;
43182;SDS011;28802;38.578;-0.066;2022-07-01T14:30:50;13.67;;;2.87;;
43182;SDS011;28802;38.578;-0.066;2022-07-01T14:33:16;14.83;;;2.80;;
43182;SDS011;28802;38.578;-0.066;2022-07-01T14:35:44;15.07;;;2.87;;
43182;SDS011;28802;38.578;-0.066;2022-07-01T14:38:10;12.07;;;3.33;;
43182;SDS011;28802;38.578;-0.066;2022-07-01T14:40:36;24.83;;;3.77;;
43182;SDS011;28802;38.578;-0.066;2022-07-01T14:43:03;21.17;;;3.30;;
43182;SDS011;28802;38.578;-0.066;2022-07-01T14:45:29;23.77;;;3.30;;
43182;SDS011;28802;38.578;-0.066;2022-07-01T14:47:55;16.43;;;3.43;;
43182;SDS011;28802;38.578;-0.066;2022-07-01T14:50:21;14.07;;;2.43;;